createdAt,value
2019-03-24T00:04:31.451Z,9.69
2019-03-24T00:07:18.511Z,9.70
2019-03-24T00:10:06.630Z,9.71
2019-03-24T00:12:53.338Z,9.71
2019-03-24T00:15:40.772Z,9.72
2019-03-24T00:18:28.326Z,9.71
2019-03-24T00:24:21.905Z,9.70
2019-03-24T00:27:10.236Z,10.44
2019-03-24T00:29:57.671Z,9.98
2019-03-24T00:32:44.766Z,10.62
2019-03-24T00:35:31.916Z,10.11
2019-03-24T00:38:19.110Z,9.98
2019-03-24T00:41:06.607Z,9.91
2019-03-24T00:43:53.448Z,9.86
2019-03-24T00:46:41.559Z,9.80
2019-03-24T00:49:28.774Z,9.77
2019-03-24T00:52:15.943Z,9.74
2019-03-24T00:55:04.136Z,9.72
2019-03-24T00:57:51.845Z,9.70
2019-03-24T01:00:48.502Z,9.67
2019-03-24T01:03:35.668Z,10.39
2019-03-24T01:06:23.043Z,9.92
2019-03-24T01:09:10.394Z,9.81
2019-03-24T01:11:57.940Z,9.76
2019-03-24T01:14:45.939Z,9.69
2019-03-24T01:17:34.180Z,9.67
2019-03-24T01:20:21.638Z,9.64
2019-03-24T01:23:09.531Z,9.59
2019-03-24T01:25:57.670Z,9.56
2019-03-24T01:28:45.085Z,9.53
2019-03-24T01:31:31.848Z,9.53
2019-03-24T01:37:31.964Z,9.50
2019-03-24T01:40:19.681Z,9.49
2019-03-24T01:43:06.908Z,9.47
2019-03-24T01:46:01.103Z,9.45
2019-03-24T01:48:48.893Z,9.42
2019-03-24T01:51:35.927Z,9.38
2019-03-24T01:57:29.997Z,10.33
2019-03-24T02:00:18.347Z,9.76
2019-03-24T02:03:05.175Z,9.62
2019-03-24T02:12:06.008Z,9.39
2019-03-24T02:14:52.815Z,9.35
2019-03-24T02:17:39.440Z,9.30
2019-03-24T02:20:27.781Z,9.26
2019-03-24T02:23:14.619Z,9.21
2019-03-24T02:26:02.239Z,9.17
2019-03-24T02:28:49.439Z,9.11
2019-03-24T02:31:39.428Z,9.07
2019-03-24T02:34:26.100Z,9.04
2019-03-24T02:37:13.151Z,8.99
2019-03-24T02:40:00.305Z,8.99
2019-03-24T02:42:47.204Z,9.70
2019-03-24T02:45:35.400Z,9.19
2019-03-24T02:48:29.726Z,9.08
2019-03-24T02:51:16.841Z,9.01
2019-03-24T02:54:04.533Z,8.89
2019-03-24T02:56:52.377Z,8.81
2019-03-24T02:59:39.517Z,9.58
2019-03-24T03:02:27.419Z,9.06
2019-03-24T03:05:14.871Z,8.91
2019-03-24T03:08:06.544Z,8.82
2019-03-24T03:10:52.044Z,8.74
2019-03-24T03:13:40.092Z,9.44
2019-03-24T03:16:41.677Z,8.90
2019-03-24T03:19:32.981Z,8.74
2019-03-24T03:22:20.060Z,8.68
2019-03-24T03:25:09.876Z,9.38
2019-03-24T03:27:56.671Z,8.78
2019-03-24T03:30:43.513Z,8.62
2019-03-24T03:33:30.391Z,8.45
2019-03-24T03:39:24.992Z,8.27
2019-03-24T03:42:12.213Z,8.20
2019-03-24T03:48:06.211Z,8.04
2019-03-24T03:50:53.838Z,7.92
2019-03-24T03:53:41.435Z,7.90
2019-03-24T03:56:28.418Z,7.86
2019-03-24T03:59:15.694Z,7.84
2019-03-24T04:02:02.932Z,7.82
2019-03-24T04:04:57.091Z,7.79
2019-03-24T04:07:45.695Z,7.72
2019-03-24T04:10:32.913Z,7.65
2019-03-24T04:13:19.971Z,8.29
2019-03-24T04:16:06.975Z,7.62
2019-03-24T04:18:54.470Z,7.40
2019-03-24T04:21:42.531Z,8.00
2019-03-24T04:24:29.529Z,7.33
2019-03-24T04:27:16.683Z,7.90
2019-03-24T04:30:06.232Z,7.16
2019-03-24T04:32:53.043Z,6.93
2019-03-24T04:35:40.193Z,7.55
2019-03-24T04:38:27.991Z,6.86
2019-03-24T04:41:15.058Z,7.46
2019-03-24T04:44:01.954Z,6.80
2019-03-24T04:46:49.172Z,6.59
2019-03-24T04:49:36.355Z,6.45
2019-03-24T04:52:23.578Z,6.33
2019-03-24T04:55:11.332Z,6.23
2019-03-24T04:57:58.504Z,6.14
2019-03-24T05:00:46.259Z,6.08
2019-03-24T05:03:33.704Z,6.00
2019-03-24T05:06:20.601Z,5.89
2019-03-24T05:09:07.917Z,5.82
2019-03-24T05:11:58.514Z,5.77
2019-03-24T05:14:45.681Z,5.71
2019-03-24T05:17:32.960Z,6.42
2019-03-24T05:20:20.051Z,5.88
2019-03-24T05:23:13.739Z,5.76
2019-03-24T05:26:01.503Z,6.48
2019-03-24T05:29:02.841Z,6.66
2019-03-24T05:32:08.149Z,6.00
2019-03-24T05:34:55.783Z,5.87
2019-03-24T05:37:43.102Z,5.80
2019-03-24T05:40:30.226Z,5.74
2019-03-24T05:43:16.951Z,5.68
2019-03-24T05:46:03.864Z,5.60
2019-03-24T05:55:06.358Z,5.54
2019-03-24T05:57:53.587Z,5.56
2019-03-24T06:00:41.386Z,5.54
2019-03-24T06:03:28.618Z,5.55
2019-03-24T06:06:15.654Z,5.55
2019-03-24T06:09:03.450Z,5.58
2019-03-24T06:11:50.876Z,5.59
2019-03-24T06:14:41.384Z,5.66
2019-03-24T06:17:28.915Z,5.73
2019-03-24T06:20:35.559Z,6.64
2019-03-24T06:23:22.469Z,6.18
2019-03-24T06:29:30.088Z,6.59
2019-03-24T06:32:31.844Z,6.54
2019-03-24T06:35:33.313Z,6.48
2019-03-24T06:38:21.198Z,6.53
2019-03-24T06:47:28.577Z,7.07
2019-03-24T06:50:19.435Z,7.03
2019-03-24T06:53:06.435Z,7.04
2019-03-24T06:55:55.195Z,7.07
2019-03-24T06:58:42.590Z,7.07
2019-03-24T07:01:37.176Z,7.08
2019-03-24T07:04:24.626Z,7.10
2019-03-24T07:07:19.700Z,7.10
2019-03-24T07:10:07.256Z,7.10
2019-03-24T07:12:54.933Z,7.89
2019-03-24T07:15:44.360Z,8.10
2019-03-24T07:18:31.463Z,7.46
2019-03-24T07:21:19.081Z,7.31
2019-03-24T07:24:06.761Z,7.27
2019-03-24T07:27:00.680Z,7.20
2019-03-24T07:29:47.997Z,7.13
2019-03-24T07:35:41.244Z,7.10
2019-03-24T07:38:42.627Z,7.08
2019-03-24T07:41:31.545Z,7.10
2019-03-24T07:44:18.357Z,7.07
2019-03-24T07:47:12.248Z,7.01
2019-03-24T07:50:06.379Z,7.88
2019-03-24T07:53:07.820Z,7.33
2019-03-24T07:55:55.422Z,7.24
2019-03-24T07:58:45.838Z,7.22
2019-03-24T08:01:32.190Z,7.24
2019-03-24T08:04:19.541Z,7.22
2019-03-24T08:07:06.916Z,7.20
2019-03-24T08:09:53.643Z,7.19
2019-03-24T08:12:40.625Z,7.19
2019-03-24T08:15:28.491Z,7.99
2019-03-24T08:18:15.745Z,8.21
2019-03-24T08:21:07.004Z,7.59
2019-03-24T08:24:08.979Z,7.35
2019-03-24T08:26:55.893Z,7.23
2019-03-24T08:29:43.876Z,7.12
2019-03-24T08:32:38.320Z,7.08
2019-03-24T08:35:25.767Z,7.93
2019-03-24T08:38:13.482Z,7.47
2019-03-24T08:41:00.719Z,7.42
2019-03-24T08:43:54.891Z,7.46
2019-03-24T08:46:45.002Z,8.31
2019-03-24T08:49:28.903Z,7.74
2019-03-24T08:55:22.576Z,7.57
2019-03-24T08:58:09.618Z,7.60
2019-03-24T09:00:57.834Z,7.64
2019-03-24T09:06:51.636Z,7.72
2019-03-24T09:09:39.448Z,7.78
2019-03-24T09:12:40.915Z,7.79
2019-03-24T09:15:28.942Z,7.84
2019-03-24T09:18:16.049Z,7.88
2019-03-24T09:21:03.083Z,7.92
2019-03-24T09:27:08.324Z,8.00
2019-03-24T09:30:01.147Z,8.06
2019-03-24T09:32:47.974Z,8.11
2019-03-24T09:35:35.386Z,8.15
2019-03-24T09:57:08.224Z,8.66
2019-03-24T10:03:01.991Z,8.74
2019-03-24T10:08:56.176Z,8.83
2019-03-24T10:11:43.123Z,8.95
2019-03-24T10:14:30.715Z,9.08
2019-03-24T10:17:17.839Z,9.19
2019-03-24T10:20:05.081Z,10.19
2019-03-24T10:26:02.039Z,9.64
2019-03-24T10:31:55.790Z,10.75
2019-03-24T10:34:42.726Z,10.18
2019-03-24T10:40:36.694Z,10.39
2019-03-24T10:43:23.533Z,10.28
2019-03-24T10:46:11.972Z,10.21
2019-03-24T10:48:59.073Z,10.20
2019-03-24T10:51:46.817Z,10.17
2019-03-24T10:54:33.733Z,10.18
2019-03-24T10:57:20.909Z,10.17
2019-03-24T11:00:08.176Z,11.16
2019-03-24T11:02:55.267Z,10.50
2019-03-24T11:05:42.921Z,10.34
2019-03-24T11:08:29.720Z,10.25
2019-03-24T11:11:17.130Z,10.23
2019-03-24T11:14:11.610Z,10.19
2019-03-24T11:16:58.933Z,10.12
2019-03-24T11:19:46.838Z,10.09
2019-03-24T11:22:34.929Z,10.06
2019-03-24T11:25:22.970Z,10.99
2019-03-24T11:28:10.493Z,10.33
2019-03-24T11:30:57.730Z,10.24
2019-03-24T11:33:45.439Z,10.23
2019-03-24T11:36:32.457Z,10.24
2019-03-24T11:39:20.399Z,10.34
2019-03-24T11:42:08.329Z,10.35
2019-03-24T11:44:55.630Z,10.35
2019-03-24T11:47:42.825Z,10.34
2019-03-24T11:50:29.897Z,11.32
2019-03-24T11:56:22.768Z,10.55
2019-03-24T11:59:09.808Z,10.54
2019-03-24T12:01:57.077Z,10.51
2019-03-24T12:04:44.712Z,10.56
2019-03-24T12:07:31.921Z,11.60
2019-03-24T12:10:20.164Z,10.98
2019-03-24T12:13:07.507Z,10.85
2019-03-24T12:15:55.427Z,10.83
2019-03-24T12:18:46.616Z,10.80
2019-03-24T12:21:33.526Z,10.83
2019-03-24T12:30:34.213Z,11.27
2019-03-24T12:33:24.299Z,11.26
2019-03-24T12:39:17.022Z,11.15
2019-03-24T12:42:04.257Z,11.10
2019-03-24T12:44:51.359Z,12.16
2019-03-24T12:47:38.986Z,11.53
2019-03-24T12:50:31.433Z,11.49
2019-03-24T12:53:13.544Z,11.45
2019-03-24T12:56:01.664Z,11.45
2019-03-24T12:58:49.217Z,11.39
2019-03-24T13:01:37.453Z,11.40
2019-03-24T13:04:26.602Z,11.42
2019-03-24T13:07:14.455Z,11.40
2019-03-24T13:10:01.734Z,11.44
2019-03-24T13:12:48.688Z,11.52
2019-03-24T13:15:36.211Z,11.65
2019-03-24T13:18:23.842Z,11.82
2019-03-24T13:21:11.169Z,13.04
2019-03-24T13:24:01.111Z,13.46
2019-03-24T13:29:55.210Z,12.67
2019-03-24T13:32:42.068Z,12.63
2019-03-24T13:35:29.079Z,12.61
2019-03-24T13:38:16.391Z,12.59
2019-03-24T13:41:03.476Z,12.63
2019-03-24T13:43:50.208Z,12.67
2019-03-24T13:46:38.242Z,12.61
2019-03-24T13:49:26.086Z,12.69
2019-03-24T13:52:13.476Z,12.84
2019-03-24T13:58:12.100Z,14.15
2019-03-24T14:00:56.866Z,14.50
2019-03-24T14:03:44.027Z,14.84
2019-03-24T14:13:02.041Z,15.18
2019-03-24T14:19:02.025Z,15.31
2019-03-24T14:21:49.366Z,15.32
2019-03-24T14:24:38.322Z,15.39
2019-03-24T14:27:25.649Z,15.32
2019-03-24T14:30:13.172Z,14.98
2019-03-24T14:32:59.935Z,14.70
2019-03-24T14:35:54.360Z,14.68
2019-03-24T14:38:41.074Z,14.55
2019-03-24T14:41:28.695Z,14.63
2019-03-24T14:47:37.012Z,14.91
2019-03-24T14:53:38.876Z,15.07
2019-03-24T14:56:36.732Z,14.91
2019-03-24T14:59:24.758Z,15.06
2019-03-24T15:02:11.888Z,15.14
2019-03-24T15:04:58.806Z,16.20
2019-03-24T15:07:47.126Z,15.45
2019-03-24T15:10:33.961Z,15.34
2019-03-24T15:17:00.925Z,14.58
2019-03-24T15:19:48.309Z,14.59
2019-03-24T15:25:42.790Z,14.28
2019-03-24T15:28:30.437Z,14.05
2019-03-24T15:34:24.195Z,13.97
2019-03-24T15:40:36.522Z,14.17
2019-03-24T15:43:23.369Z,14.18
2019-03-24T15:55:32.260Z,13.91
2019-03-24T16:01:25.958Z,13.58
2019-03-24T16:04:13.266Z,13.55
2019-03-24T16:07:00.727Z,13.58
2019-03-24T16:19:05.335Z,13.43
2019-03-24T16:21:52.354Z,13.34
2019-03-24T16:27:45.559Z,13.00
2019-03-24T16:30:33.071Z,12.85
2019-03-24T16:33:20.907Z,12.69
2019-03-24T16:36:07.830Z,12.58
2019-03-24T16:39:03.208Z,12.47
2019-03-24T16:41:42.252Z,12.38
2019-03-24T16:44:29.761Z,13.27
2019-03-24T16:47:17.918Z,12.56
2019-03-24T16:50:07.603Z,12.35
2019-03-24T16:52:56.046Z,12.21
2019-03-24T16:55:43.986Z,13.02
2019-03-24T16:58:30.788Z,12.29
2019-03-24T17:01:19.122Z,12.10
2019-03-24T17:04:06.261Z,11.97
2019-03-24T17:06:53.473Z,11.83
2019-03-24T17:09:40.616Z,11.73
2019-03-24T17:15:15.227Z,11.52
2019-03-24T17:18:17.189Z,11.45
2019-03-24T17:21:05.013Z,11.32
2019-03-24T17:23:52.056Z,11.23
2019-03-24T17:26:39.189Z,11.15
2019-03-24T17:29:26.783Z,11.95
2019-03-24T17:32:13.567Z,12.14
2019-03-24T17:35:00.556Z,12.22
2019-03-24T17:37:48.036Z,11.44
2019-03-24T17:40:38.733Z,11.19
2019-03-24T17:43:23.569Z,11.01
2019-03-24T17:46:10.319Z,10.83
2019-03-24T17:48:58.007Z,10.73
2019-03-24T17:55:14.357Z,10.55
2019-03-24T17:58:01.519Z,10.50
2019-03-24T18:01:02.728Z,10.46
2019-03-24T18:25:37.774Z,10.08
2019-03-24T18:28:36.809Z,10.04
2019-03-24T18:37:35.926Z,9.88
2019-03-24T18:49:43.312Z,9.70
2019-03-24T18:52:30.196Z,9.68
2019-03-24T19:04:35.664Z,9.58
2019-03-24T19:13:37.632Z,9.45
2019-03-24T19:25:46.068Z,9.26
2019-03-24T19:28:33.122Z,9.23
2019-03-24T19:31:20.243Z,9.18
2019-03-24T19:34:07.072Z,9.86
2019-03-24T19:36:54.058Z,10.00
2019-03-24T19:39:40.743Z,9.30
2019-03-24T20:04:09.590Z,8.21
2019-03-24T20:31:54.324Z,6.90
2019-03-24T20:34:41.320Z,6.71
2019-03-24T20:50:21.719Z,5.89
2019-03-24T20:53:18.209Z,5.74
2019-03-24T20:55:57.873Z,5.61
2019-03-24T20:58:59.014Z,5.50
2019-03-24T21:01:45.858Z,6.18
2019-03-24T21:04:33.753Z,6.31
2019-03-24T21:07:20.892Z,5.64
2019-03-24T21:10:07.712Z,5.45
2019-03-24T21:13:07.488Z,5.32
2019-03-24T21:15:54.603Z,5.18
2019-03-24T21:18:42.033Z,5.09
2019-03-24T21:21:29.329Z,5.73
2019-03-24T21:37:11.596Z,4.66
2019-03-24T21:39:58.611Z,4.49
2019-03-24T21:45:56.553Z,4.24
2019-03-24T21:48:43.910Z,4.93
2019-03-24T21:57:43.543Z,4.84
2019-03-24T22:00:36.573Z,4.19
2019-03-24T22:03:23.845Z,3.99
2019-03-24T22:15:44.716Z,3.45
2019-03-24T22:18:35.029Z,3.38
2019-03-24T22:21:30.338Z,4.04
2019-03-24T22:27:51.326Z,3.28
2019-03-24T22:43:04.144Z,2.86
2019-03-24T22:45:50.919Z,2.81
2019-03-24T22:48:45.169Z,2.76
2019-03-24T22:51:32.262Z,2.71
2019-03-24T22:54:19.514Z,2.66
2019-03-24T22:57:06.378Z,2.61
2019-03-24T22:59:54.759Z,2.57
2019-03-24T23:02:41.691Z,2.52
2019-03-24T23:05:28.545Z,2.45
2019-03-24T23:08:15.621Z,2.39
2019-03-24T23:11:03.229Z,2.34
2019-03-24T23:26:19.892Z,2.19
2019-03-24T23:50:53.526Z,1.85
